createdAt,value
2023-04-18T00:00:44.204Z,8.47
2023-04-18T00:03:10.838Z,8.52
2023-04-18T00:11:16.288Z,8.56
2023-04-18T00:13:42.868Z,8.53
2023-04-18T00:16:09.540Z,8.51
2023-04-18T00:18:37.115Z,8.52
2023-04-18T00:26:47.167Z,8.49
2023-04-18T00:35:11.927Z,8.48
2023-04-18T00:37:39.070Z,8.44
2023-04-18T00:46:06.752Z,8.44
2023-04-18T00:49:36.942Z,8.45
2023-04-18T00:52:03.933Z,8.35
2023-04-18T01:06:24.518Z,8.09
2023-04-18T01:08:51.225Z,8.02
2023-04-18T01:11:17.731Z,7.95
2023-04-18T01:14:06.450Z,7.81
2023-04-18T01:16:37.128Z,7.66
2023-04-18T01:19:04.823Z,7.56
2023-04-18T01:30:34.409Z,7.13
2023-04-18T01:33:02.409Z,7.05
2023-04-18T01:35:29.768Z,6.97
2023-04-18T01:37:57.243Z,6.93
2023-04-18T01:43:57.044Z,6.77
2023-04-18T01:57:44.251Z,6.40
2023-04-18T02:13:43.272Z,6.14
2023-04-18T02:33:38.627Z,5.85
2023-04-18T02:51:16.568Z,5.75
2023-04-18T02:53:54.960Z,5.75
2023-04-18T02:56:22.814Z,5.70
2023-04-18T03:02:16.166Z,5.64
2023-04-18T04:50:15.712Z,5.95
2023-04-18T05:02:37.062Z,6.14
2023-04-18T05:05:03.838Z,6.19
2023-04-18T05:07:30.824Z,6.19
2023-04-18T05:09:57.236Z,6.28
2023-04-18T05:12:23.699Z,6.35
2023-04-18T05:14:50.270Z,6.37
2023-04-18T05:17:16.643Z,6.43
2023-04-18T05:19:44.130Z,6.54
2023-04-18T05:22:10.828Z,6.64
2023-04-18T05:24:37.258Z,6.65
2023-04-18T05:27:03.976Z,6.71
2023-04-18T05:29:30.495Z,6.73
2023-04-18T05:31:56.903Z,6.75
2023-04-18T05:34:23.311Z,6.85
2023-04-18T05:36:49.853Z,6.96
2023-04-18T05:39:17.006Z,7.05
2023-04-18T05:41:43.610Z,7.17
2023-04-18T05:44:10.203Z,7.31
2023-04-18T05:46:36.649Z,7.38
2023-04-18T05:49:03.664Z,7.45
2023-04-18T05:51:31.180Z,7.54
2023-04-18T05:53:57.660Z,7.67
2023-04-18T05:56:24.104Z,7.79
2023-04-18T05:58:51.292Z,7.88
2023-04-18T06:01:21.292Z,7.99
2023-04-18T06:03:47.958Z,8.11
2023-04-18T06:06:14.632Z,8.27
2023-04-18T06:08:41.188Z,8.34
2023-04-18T06:11:08.880Z,8.38
2023-04-18T06:13:37.052Z,8.41
2023-04-18T06:16:04.221Z,8.45
2023-04-18T06:18:31.285Z,8.49
2023-04-18T06:20:57.757Z,8.40
2023-04-18T06:23:24.189Z,8.16
2023-04-18T06:25:50.686Z,8.00
2023-04-18T06:28:17.101Z,7.90
2023-04-18T06:30:43.491Z,7.71
2023-04-18T06:33:11.005Z,7.68
2023-04-18T06:35:37.660Z,7.70
2023-04-18T06:38:04.258Z,7.70
2023-04-18T06:40:30.805Z,7.64
2023-04-18T06:42:57.282Z,7.62
2023-04-18T06:45:23.673Z,7.70
2023-04-18T06:47:51.256Z,7.79
2023-04-18T06:50:17.739Z,7.77
2023-04-18T06:52:45.439Z,7.81
2023-04-18T06:55:12.766Z,7.97
2023-04-18T06:57:42.627Z,8.04
2023-04-18T07:00:10.363Z,8.06
2023-04-18T07:02:38.132Z,8.03
2023-04-18T07:05:05.513Z,8.06
2023-04-18T07:07:32.974Z,8.11
2023-04-18T07:09:59.705Z,8.14
2023-04-18T07:12:26.200Z,8.11
2023-04-18T07:14:53.299Z,8.14
2023-04-18T07:17:19.834Z,8.28
2023-04-18T07:19:46.266Z,8.32
2023-04-18T07:22:12.695Z,8.29
2023-04-18T07:24:39.876Z,8.39
2023-04-18T07:27:06.878Z,8.46
2023-04-18T07:29:33.560Z,8.47
2023-04-18T07:32:00.093Z,8.49
2023-04-18T07:34:29.702Z,8.47
2023-04-18T07:36:59.516Z,8.51
2023-04-18T07:39:25.917Z,8.54
2023-04-18T07:41:52.416Z,8.60
2023-04-18T07:44:21.359Z,8.58
2023-04-18T07:46:47.882Z,8.58
2023-04-18T07:49:15.030Z,8.62
2023-04-18T07:51:41.703Z,8.72
2023-04-18T07:54:08.208Z,8.80
2023-04-18T07:56:34.673Z,8.87
2023-04-18T07:59:01.620Z,8.83
2023-04-18T08:01:28.054Z,8.91
2023-04-18T08:03:56.799Z,9.00
2023-04-18T08:06:23.304Z,9.03
2023-04-18T08:08:49.769Z,8.99
2023-04-18T08:11:16.410Z,9.10
2023-04-18T08:13:43.918Z,9.16
2023-04-18T08:16:10.650Z,9.27
2023-04-18T08:18:37.058Z,9.39
2023-04-18T08:21:03.637Z,9.46
2023-04-18T08:23:30.035Z,9.49
2023-04-18T08:25:56.480Z,9.56
2023-04-18T08:28:22.912Z,9.57
2023-04-18T08:30:50.244Z,9.69
2023-04-18T08:33:16.709Z,9.64
2023-04-18T08:35:43.365Z,9.66
2023-04-18T08:38:09.917Z,9.69
2023-04-18T08:40:37.238Z,9.64
2023-04-18T08:43:09.099Z,9.49
2023-04-18T08:45:36.783Z,9.48
2023-04-18T08:48:03.918Z,9.47
2023-04-18T08:50:30.798Z,9.56
2023-04-18T08:52:59.282Z,9.62
2023-04-18T08:55:25.806Z,9.68
2023-04-18T08:57:54.590Z,9.67
2023-04-18T09:00:22.433Z,9.71
2023-04-18T09:02:49.400Z,9.79
2023-04-18T09:05:21.079Z,9.83
2023-04-18T09:07:48.681Z,9.80
2023-04-18T09:10:32.810Z,9.82
2023-04-18T09:13:02.956Z,9.96
2023-04-18T09:15:30.300Z,10.00
2023-04-18T09:17:59.273Z,10.06
2023-04-18T09:20:41.041Z,10.08
2023-04-18T09:23:11.003Z,10.14
2023-04-18T09:25:45.300Z,10.29
2023-04-18T09:28:28.837Z,10.36
2023-04-18T09:31:09.124Z,10.45
2023-04-18T09:33:36.943Z,10.65
2023-04-18T09:36:20.709Z,10.88
2023-04-18T09:38:48.403Z,10.99
2023-04-18T09:41:21.197Z,11.07
2023-04-18T09:43:48.332Z,11.16
2023-04-18T09:46:15.268Z,11.29
2023-04-18T09:48:41.893Z,11.38
2023-04-18T09:51:11.516Z,11.36
2023-04-18T09:53:44.432Z,11.25
2023-04-18T09:56:25.694Z,11.16
2023-04-18T09:58:56.445Z,11.03
2023-04-18T10:01:27.668Z,10.95
2023-04-18T10:03:55.659Z,11.01
2023-04-18T10:06:22.323Z,11.13
2023-04-18T10:08:50.615Z,11.15
2023-04-18T10:11:18.573Z,11.19
2023-04-18T10:13:47.944Z,11.25
2023-04-18T10:16:14.587Z,11.27
2023-04-18T10:18:42.545Z,11.27
2023-04-18T10:21:09.296Z,11.29
2023-04-18T10:23:39.665Z,11.32
2023-04-18T10:26:12.192Z,11.39
2023-04-18T10:28:54.271Z,11.44
2023-04-18T10:31:22.568Z,11.48
2023-04-18T10:34:03.332Z,11.51
2023-04-18T10:36:32.364Z,11.55
2023-04-18T10:39:20.868Z,11.61
2023-04-18T10:41:51.441Z,11.79
2023-04-18T10:44:24.715Z,12.00
2023-04-18T10:46:51.201Z,12.18
2023-04-18T10:49:24.473Z,12.34
2023-04-18T10:51:58.354Z,12.46
2023-04-18T10:54:55.538Z,12.64
2023-04-18T10:57:22.912Z,12.72
2023-04-18T10:59:52.496Z,12.86
2023-04-18T11:02:26.109Z,13.01
2023-04-18T11:04:55.386Z,13.06
2023-04-18T11:07:34.616Z,13.10
2023-04-18T11:10:01.860Z,13.20
2023-04-18T11:12:32.890Z,13.24
2023-04-18T11:15:01.535Z,13.38
2023-04-18T11:17:32.201Z,13.34
2023-04-18T11:20:13.625Z,13.34
2023-04-18T11:22:50.785Z,13.41
2023-04-18T11:25:20.143Z,13.46
2023-04-18T11:27:47.539Z,13.47
2023-04-18T11:30:14.717Z,13.53
2023-04-18T11:32:41.309Z,13.54
2023-04-18T11:35:12.242Z,13.58
2023-04-18T11:37:39.196Z,13.64
2023-04-18T11:40:08.720Z,13.73
2023-04-18T11:42:37.238Z,13.84
2023-04-18T11:45:04.082Z,14.00
2023-04-18T11:47:33.749Z,14.09
2023-04-18T11:50:04.278Z,14.15
2023-04-18T11:52:31.596Z,14.12
2023-04-18T11:55:21.274Z,14.16
2023-04-18T11:57:57.553Z,14.29
2023-04-18T12:00:35.472Z,14.37
2023-04-18T12:03:07.729Z,14.40
2023-04-18T12:05:37.160Z,14.42
2023-04-18T12:08:13.912Z,14.40
2023-04-18T12:10:47.714Z,14.37
2023-04-18T12:13:14.676Z,14.37
2023-04-18T12:15:43.652Z,14.34
2023-04-18T12:18:12.081Z,14.38
2023-04-18T12:20:46.040Z,14.32
2023-04-18T12:23:35.764Z,14.24
2023-04-18T12:26:03.933Z,14.25
2023-04-18T12:28:31.242Z,14.24
2023-04-18T12:30:57.942Z,14.28
2023-04-18T12:33:24.804Z,14.24
2023-04-18T12:35:52.587Z,14.14
2023-04-18T12:38:22.677Z,14.13
2023-04-18T12:40:49.986Z,14.16
2023-04-18T12:43:16.801Z,14.09
2023-04-18T12:45:43.380Z,14.01
2023-04-18T12:48:10.278Z,13.93
2023-04-18T12:50:36.807Z,14.04
2023-04-18T12:53:03.538Z,14.24
2023-04-18T12:55:30.111Z,14.32
2023-04-18T12:57:58.070Z,14.38
2023-04-18T13:00:27.517Z,14.39
2023-04-18T13:02:54.013Z,14.46
2023-04-18T13:05:22.942Z,14.49
2023-04-18T13:07:49.694Z,14.61
2023-04-18T13:10:21.797Z,14.65
2023-04-18T13:12:49.282Z,14.78
2023-04-18T13:15:16.121Z,14.81
2023-04-18T13:17:43.289Z,14.79
2023-04-18T13:20:12.238Z,14.72
2023-04-18T13:22:40.119Z,14.72
2023-04-18T13:25:08.140Z,14.83
2023-04-18T13:27:34.595Z,14.85
2023-04-18T13:30:01.040Z,14.85
2023-04-18T13:32:27.501Z,14.83
2023-04-18T13:34:55.969Z,14.90
2023-04-18T13:37:22.742Z,14.87
2023-04-18T13:39:49.194Z,14.92
2023-04-18T13:42:16.306Z,15.01
2023-04-18T13:44:42.840Z,15.07
2023-04-18T13:47:09.249Z,15.10
2023-04-18T13:49:36.390Z,15.10
2023-04-18T13:52:03.541Z,15.10
2023-04-18T13:54:31.844Z,15.22
2023-04-18T13:57:02.992Z,15.23
2023-04-18T13:59:31.315Z,15.22
2023-04-18T14:01:58.021Z,15.23
2023-04-18T14:04:24.717Z,15.30
2023-04-18T14:06:51.372Z,15.21
2023-04-18T14:09:18.004Z,14.89
2023-04-18T14:11:45.201Z,14.85
2023-04-18T14:14:11.708Z,14.82
2023-04-18T14:16:38.162Z,14.75
2023-04-18T14:19:04.647Z,14.75
2023-04-18T14:21:31.179Z,14.83
2023-04-18T14:23:57.602Z,14.83
2023-04-18T14:26:24.091Z,14.80
2023-04-18T14:28:50.715Z,14.69
2023-04-18T14:31:17.181Z,14.71
2023-04-18T14:33:43.682Z,14.72
2023-04-18T14:36:10.746Z,14.77
2023-04-18T14:38:37.164Z,14.80
2023-04-18T14:41:04.487Z,14.82
2023-04-18T14:43:30.937Z,14.87
2023-04-18T14:45:59.008Z,15.02
2023-04-18T14:48:26.282Z,15.16
2023-04-18T14:50:57.023Z,15.19
2023-04-18T14:53:24.062Z,15.19
2023-04-18T14:55:50.949Z,15.12
2023-04-18T14:58:17.498Z,15.09
2023-04-18T15:00:44.020Z,15.05
2023-04-18T15:03:11.449Z,14.98
2023-04-18T15:05:44.894Z,14.90
2023-04-18T15:08:11.520Z,14.86
2023-04-18T15:10:39.945Z,14.83
2023-04-18T15:13:06.452Z,14.79
2023-04-18T15:15:35.475Z,14.75
2023-04-18T15:18:02.810Z,14.75
2023-04-18T15:20:29.613Z,14.77
2023-04-18T15:22:56.748Z,14.74
2023-04-18T15:25:23.260Z,14.75
2023-04-18T15:27:49.831Z,14.68
2023-04-18T15:30:16.330Z,14.56
2023-04-18T15:32:42.844Z,14.46
2023-04-18T15:35:10.350Z,14.36
2023-04-18T15:37:37.244Z,14.32
2023-04-18T15:40:09.394Z,14.41
2023-04-18T15:42:36.136Z,14.63
2023-04-18T15:45:04.608Z,14.85
2023-04-18T15:47:33.840Z,14.94
2023-04-18T15:50:00.466Z,14.97
2023-04-18T15:52:27.017Z,15.05
2023-04-18T15:54:53.809Z,15.09
2023-04-18T15:57:20.971Z,15.12
2023-04-18T15:59:47.448Z,15.08
2023-04-18T16:02:14.087Z,14.94
2023-04-18T16:04:40.849Z,14.70
2023-04-18T16:07:08.208Z,14.55
2023-04-18T16:09:34.650Z,14.43
2023-04-18T16:12:03.153Z,14.33
2023-04-18T16:14:31.084Z,14.29
2023-04-18T16:16:59.118Z,14.32
2023-04-18T16:19:26.326Z,14.35
2023-04-18T16:21:52.794Z,14.39
2023-04-18T16:24:19.262Z,14.37
2023-04-18T16:26:45.744Z,14.26
2023-04-18T16:29:12.212Z,14.20
2023-04-18T16:31:38.789Z,14.16
2023-04-18T16:34:05.294Z,14.13
2023-04-18T16:36:34.161Z,14.06
2023-04-18T16:39:00.665Z,14.00
2023-04-18T16:41:27.172Z,13.99
2023-04-18T16:43:53.942Z,13.96
2023-04-18T16:46:20.562Z,13.93
2023-04-18T16:48:47.098Z,13.92
2023-04-18T16:51:13.574Z,13.91
2023-04-18T16:53:39.984Z,13.92
2023-04-18T16:56:07.875Z,13.95
2023-04-18T16:58:34.441Z,14.06
2023-04-18T17:01:03.937Z,14.25
2023-04-18T17:03:30.488Z,14.37
2023-04-18T17:05:57.141Z,14.42
2023-04-18T17:08:25.642Z,14.44
2023-04-18T17:10:52.666Z,14.38
2023-04-18T17:13:19.173Z,14.25
2023-04-18T17:15:45.978Z,14.15
2023-04-18T17:18:12.492Z,14.05
2023-04-18T17:20:38.957Z,13.99
2023-04-18T17:23:05.358Z,13.91
2023-04-18T17:25:31.811Z,13.83
2023-04-18T17:27:58.610Z,13.73
2023-04-18T17:30:25.088Z,13.67
2023-04-18T17:32:51.581Z,13.58
2023-04-18T17:35:18.128Z,13.52
2023-04-18T17:37:44.569Z,13.47
2023-04-18T17:40:11.857Z,13.39
2023-04-18T17:42:38.619Z,13.28
2023-04-18T17:45:06.614Z,13.18
2023-04-18T17:47:33.654Z,13.10
2023-04-18T17:50:00.705Z,13.03
2023-04-18T17:52:30.469Z,12.94
2023-04-18T17:54:56.995Z,12.88
2023-04-18T17:57:25.852Z,12.85
2023-04-18T17:59:52.519Z,12.79
2023-04-18T18:02:19.518Z,12.73
2023-04-18T18:04:46.898Z,12.69
2023-04-18T18:07:14.092Z,12.64
2023-04-18T18:09:41.893Z,12.62
2023-04-18T18:12:09.862Z,12.61
2023-04-18T18:14:36.378Z,12.58
2023-04-18T18:17:03.088Z,12.59
2023-04-18T18:19:29.576Z,12.58
2023-04-18T18:21:56.231Z,12.58
2023-04-18T18:24:25.030Z,12.57
2023-04-18T18:26:51.859Z,12.50
2023-04-18T18:29:19.210Z,12.49
2023-04-18T18:31:45.773Z,12.48
2023-04-18T18:34:12.422Z,12.49
2023-04-18T18:36:39.024Z,12.50
2023-04-18T18:39:05.537Z,12.50
2023-04-18T18:41:31.921Z,12.46
2023-04-18T18:43:58.496Z,12.44
2023-04-18T18:46:25.297Z,12.47
2023-04-18T18:48:52.137Z,12.49
2023-04-18T18:51:19.087Z,12.43
2023-04-18T18:53:46.546Z,12.36
2023-04-18T20:52:10.127Z,11.04
2023-04-18T20:54:39.011Z,11.09
2023-04-18T20:57:07.594Z,11.10
2023-04-18T22:16:21.887Z,10.75
2023-04-18T22:18:51.684Z,10.69
2023-04-18T22:21:19.873Z,10.70
2023-04-18T22:30:04.227Z,10.70
2023-04-18T22:32:31.236Z,10.65
